Home > Products > Valid Products > TAF

000
FTUS41 KLWX 032331
TAFDCA
TAF
KDCA 032331Z 0400/0424 09010KT P6SM -SHRA VCTS OVC090CB
     FM040200 06006KT P6SM -SHRA OVC025
     FM040300 06005KT P6SM -SHRA OVC015
     FM040400 06005KT P6SM -SHRA OVC008
     FM040600 05004KT P6SM OVC008
     FM041600 06005KT P6SM BKN015=



000
FTUS41 KLWX 032331
TAFMRB
TAF
KMRB 032331Z 0400/0424 VRB03KT P6SM -SHRA VCTS BKN050CB
     FM040200 VRB03KT P6SM BKN025
     FM040400 VRB03KT P6SM BKN015
     FM040700 00000KT P6SM BKN008
     FM040900 00000KT P6SM BKN003
     FM041100 00000KT P6SM BKN008
     FM041600 10004KT P6SM -SHRA BKN025
     FM041900 10004KT P6SM -SHRA BKN020=



000
FTUS41 KLWX 032331
TAFBWI
TAF
KBWI 032331Z 0400/0506 09010KT P6SM -SHRA OVC040
     FM040200 07005KT P6SM -SHRA OVC010
     FM040500 08004KT P6SM OVC008
     FM040800 VRB03KT P6SM OVC003
     FM041500 06005KT P6SM OVC008
     FM042000 07006KT P6SM OVC015
     FM050200 06006KT P6SM OVC008=



000
FTUS41 KLWX 032331
TAFCHO
TAF
KCHO 032331Z 0400/0424 06004KT P6SM -SHRA VCTS BKN040CB
      TEMPO 0400/0401 VRB25KT 3SM -TSRA
     FM040200 02004KT P6SM SCT025
     FM040800 00000KT P6SM SCT008 BKN015
     FM041100 00000KT P6SM -SHRA BKN008
     FM041500 VRB03KT P6SM -SHRA OVC015
     FM041900 VRB03KT P6SM -SHRA BKN040=



000
FTUS41 KLWX 032331
TAFIAD
TAF
KIAD 032331Z 0400/0506 09008KT P6SM -SHRA VCTS BKN050CB
     FM040200 05004KT P6SM -SHRA OVC025
     FM040300 05004KT P6SM OVC015
     FM040400 05004KT P6SM OVC008
     FM041600 07005KT P6SM BKN015
     FM042000 08005KT P6SM BKN060
     FM050100 08005KT P6SM OVC015
     FM050500 06004KT P6SM OVC008=



000
FTUS41 KLWX 032331
TAFMTN
TAF
KMTN 032331Z 0400/0424 07006KT P6SM -SHRA OVC015
     FM040100 07005KT P6SM -SHRA OVC008
     FM040300 07005KT P6SM -SHRA OVC008
     FM040600 08004KT P6SM OVC008
     FM040800 VRB03KT 3SM BR OVC003
     FM041300 06005KT P6SM OVC008
     FM041800 06005KT P6SM OVC008
      AMD NOT SKED 0402/0412=



000
FTUS41 KLWX 032322 AAB
TAFMRB
TAF AMD
KMRB 032322Z 0323/0418 VRB03KT P6SM -SHRA VCTS BKN040CB
     FM040200 VRB03KT P6SM BKN025
     FM040500 00000KT 4SM -DZ BR BKN015
     FM040900 00000KT 2SM -DZ BR BKN008
     FM041300 00000KT P6SM BKN015=



000
FTUS41 KLWX 032049 AAA
TAFBWI
TAF AMD
KBWI 032049Z 0321/0424 05006KT P6SM -SHRA OVC025
     FM040000 06006KT P6SM -DZ OVC015
     FM040300 07005KT 3SM -DZ BR OVC008=



000
FTUS41 KLWX 032049 AAA
TAFDCA
TAF AMD
KDCA 032049Z 0321/0418 01006KT P6SM -SHRA VCTS BKN030CB
     FM032300 03005KT P6SM -SHRA BKN030
     FM040300 06005KT P6SM OVC015
     FM040400 06005KT 4SM -DZ BR OVC008=



000
FTUS41 KLWX 032049 AAA
TAFBWI
TAF AMD
KBWI 032049Z 0321/0424 05006KT P6SM -SHRA OVC025
     FM040000 06006KT P6SM -DZ OVC015
     FM040300 07005KT 3SM -DZ BR OVC008=



000
FTUS41 KLWX 032048 AAB
TAFIAD
TAF AMD
KIAD 032048Z 0321/0424 36007KT P6SM -SHRA VCTS SCT030CB BKN070
     FM032300 06005KT P6SM -SHRA BKN030
     FM040300 05004KT P6SM -SHRA OVC015
     FM040500 VRB03KT 4SM -DZ BR OVC008
     FM041900 08005KT P6SM BKN015
     FM042100 11006KT P6SM BKN040
     FM042200 11006KT P6SM OVC015=



000
FTUS41 KLWX 032048 AAB
TAFIAD
TAF AMD
KIAD 032048Z 0321/0424 36007KT P6SM -SHRA VCTS SCT030CB BKN070
     FM032300 06005KT P6SM -SHRA BKN030
     FM040300 05004KT P6SM -SHRA OVC015
     FM040500 VRB03KT 4SM -DZ BR OVC008
     FM041900 08005KT P6SM BKN015
     FM042100 11006KT P6SM BKN040
     FM042200 11006KT P6SM OVC015=



000
FTUS41 KLWX 031937 AAA
TAFIAD
TAF AMD
KIAD 031937Z 0320/0424 36007KT P6SM -SHRA VCTS SCT030CB BKN070
     FM032300 06005KT P6SM -SHRA BKN030
     FM040300 05004KT P6SM -SHRA OVC015
     FM040500 VRB03KT 4SM -DZ BR OVC008
     FM041900 08005KT P6SM BKN015
     FM042100 11006KT P6SM BKN040
     FM042200 11006KT P6SM OVC015=



000
FTUS41 KLWX 031931 AAA
TAFMRB
TAF AMD
KMRB 031931Z 0320/0418 02007KT P6SM -SHRA VCTS BKN040CB
     FM032200 VRB03KT P6SM -SHRA BKN040
     FM040200 VRB03KT P6SM BKN025
     FM040500 00000KT 4SM -DZ BR BKN015
     FM040900 00000KT 2SM -DZ BR BKN008
     FM041300 00000KT P6SM BKN015=



000
FTUS41 KLWX 031737
TAFIAD
TAF
KIAD 031737Z 0318/0424 36007KT P6SM -SHRA SCT025 BKN070
     FM032300 06005KT P6SM -SHRA BKN030
     FM040300 05004KT P6SM -SHRA OVC015
     FM040500 VRB03KT 4SM -DZ BR OVC008
     FM041900 08005KT P6SM BKN015
     FM042100 11006KT P6SM BKN040
     FM042200 11006KT P6SM OVC015=



000
FTUS41 KLWX 031737
TAFMTN
TAF
KMTN 031737Z 0318/0418 34005KT P6SM OVC009
     FM040300 07005KT 3SM -DZ BR OVC008=



000
FTUS41 KLWX 031737
TAFCHO
TAF
KCHO 031737Z 0318/0418 VRB03KT P6SM VCTS BKN040CB
     FM040900 00000KT 4SM -DZ BR BKN020
     FM041500 VRB03KT 6SM -SHRA BR BKN030=



000
FTUS41 KLWX 031737
TAFMRB
TAF
KMRB 031737Z 0318/0418 02007KT P6SM -SHRA BKN040
     FM040200 VRB03KT P6SM BKN025
     FM040500 00000KT 4SM -DZ BR BKN015
     FM040900 00000KT 2SM -DZ BR BKN008
     FM041300 00000KT P6SM BKN015=



000
FTUS41 KLWX 031737
TAFBWI
TAF
KBWI 031737Z 0318/0424 07006KT 5SM BR OVC015
     FM032000 04006KT P6SM -SHRA OVC025
     FM040000 06006KT P6SM -DZ OVC015
     FM040300 07005KT 3SM -DZ BR OVC008=



000
FTUS41 KLWX 031737
TAFDCA
TAF
KDCA 031737Z 0318/0418 01006KT P6SM -SHRA VCTS BKN025CB
     FM040300 06005KT P6SM OVC015
     FM040400 06005KT 4SM -DZ BR OVC008=



000
FTUS41 KLWX 031737
TAFCHO
TAF
KCHO 031737Z 0318/0418 VRB03KT P6SM VCTS BKN040CB
     FM040900 00000KT 4SM -DZ BR BKN020
     FM041500 VRB03KT 6SM -SHRA BR BKN030=



000
FTUS41 KLWX 031737
TAFIAD
TAF
KIAD 031737Z 0318/0424 36007KT P6SM -SHRA SCT025 BKN070
     FM032300 06005KT P6SM -SHRA BKN030
     FM040300 05004KT P6SM -SHRA OVC015
     FM040500 VRB03KT 4SM -DZ BR OVC008
     FM041900 08005KT P6SM BKN015
     FM042100 11006KT P6SM BKN040
     FM042200 11006KT P6SM OVC015=



000
FTUS41 KLWX 031737
TAFDCA
TAF
KDCA 031737Z 0318/0418 01006KT P6SM -SHRA VCTS BKN025CB
     FM040300 06005KT P6SM OVC015
     FM040400 06005KT 4SM -DZ BR OVC008=



000
FTUS41 KLWX 031737
TAFBWI
TAF
KBWI 031737Z 0318/0424 07006KT 5SM BR OVC015
     FM032000 04006KT P6SM -SHRA OVC025
     FM040000 06006KT P6SM -DZ OVC015
     FM040300 07005KT 3SM -DZ BR OVC008=



000
FTUS41 KLWX 031737
TAFMRB
TAF
KMRB 031737Z 0318/0418 02007KT P6SM -SHRA BKN040
     FM040200 VRB03KT P6SM BKN025
     FM040500 00000KT 4SM -DZ BR BKN015
     FM040900 00000KT 2SM -DZ BR BKN008
     FM041300 00000KT P6SM BKN015=



000
FTUS41 KLWX 031737
TAFMTN
TAF
KMTN 031737Z 0318/0418 34005KT P6SM OVC009
     FM040300 07005KT 3SM -DZ BR OVC008=



000
FTUS41 KLWX 031516 AAA
TAFMTN
TAF AMD
KMTN 031516Z 0315/0412 VRB03KT 1SM BR OVC005
     FM031700 02006KT 5SM BR BKN008 OVC012
     FM032000 VRB04KT P6SM OVC015
     FM040500 08005KT 3SM BR OVC003=



000
FTUS41 KLWX 031515 AAA
TAFBWI
TAF AMD
KBWI 031515Z 0315/0418 VRB05KT 1SM BR OVC003
     FM031700 05006KT 5SM BR BKN007 OVC012
     FM032000 05004KT P6SM OVC015
     FM040500 08004KT 3SM BR OVC003=



000
FTUS41 KLWX 031511 AAA
TAFIAD
TAF AMD
KIAD 031511Z 0315/0418 32007KT P6SM SCT012 OVC060
     FM031900 01005KT P6SM -SHRA OVC025
     FM040000 05004KT P6SM BKN020
     FM040900 VRB03KT 3SM BR OVC003
     FM041500 VRB04KT P6SM OVC015=



000
FTUS41 KLWX 031404 AAA
TAFDCA
TAF AMD
KDCA 031404Z 0314/0412 29006KT P6SM SCT015 BKN090
     FM031700 36005KT 5SM -SHRA OVC015
     FM031800 VRB04KT P6SM OVC015
     FM040500 05004KT 6SM BR OVC008=



000
FTUS41 KLWX 031404 AAA
TAFDCA
TAF AMD
KDCA 031404Z 0314/0412 29006KT P6SM SCT015 BKN090
     FM031700 36005KT 5SM -SHRA OVC015
     FM031800 VRB04KT P6SM OVC015
     FM040500 05004KT 6SM BR OVC008=



000
FTUS41 KLWX 031124
TAFIAD
TAF
KIAD 031124Z 0312/0418 34006KT 3SM -SHRA BR OVC060
     FM031400 35006KT P6SM -SHRA OVC015
     FM031900 01005KT P6SM -SHRA OVC025
     FM040000 05004KT P6SM BKN020
     FM040900 VRB03KT 3SM BR OVC003
     FM041500 VRB04KT P6SM OVC015=



000
FTUS41 KLWX 031124
TAFDCA
TAF
KDCA 031124Z 0312/0412 36005KT 3SM -SHRA BR BKN008 OVC015
     FM031700 36005KT 5SM -SHRA OVC015
     FM031800 VRB04KT P6SM OVC015
     FM040500 05004KT 6SM BR OVC008=



000
FTUS41 KLWX 031124
TAFMRB
TAF
KMRB 031124Z 0312/0412 36005KT P6SM OVC050
     FM040400 VRB03KT 3SM BR BKN050
     FM040900 00000KT 1SM BR BKN025=



000
FTUS41 KLWX 031124
TAFMTN
TAF
KMTN 031124Z 0312/0412 36003KT 3SM -DZ BR OVC005
     FM031800 02006KT P6SM OVC008
     FM032000 VRB04KT P6SM OVC015
     FM040500 08005KT 3SM BR OVC003=



000
FTUS41 KLWX 031124
TAFBWI
TAF
KBWI 031124Z 0312/0418 01007KT 3SM -SHRA BR OVC003
     FM031800 02006KT P6SM OVC015
     FM032100 05006KT P6SM OVC015
     FM040500 08004KT 3SM BR OVC003=



000
FTUS41 KLWX 031124
TAFCHO
TAF
KCHO 031124Z 0312/0412 VRB03KT P6SM OVC080
     FM040900 00000KT 3SM BR OVC050=



000
FTUS41 KLWX 030913 AAA
TAFBWI
TAF AMD
KBWI 030913Z 0309/0412 05005KT 5SM -SHRA BR OVC005
     FM031200 01007KT 3SM -SHRA BR OVC008
     FM031800 02005KT P6SM OVC008
     FM040000 08004KT P6SM OVC008
     FM040500 08004KT 3SM BR OVC003=



000
FTUS41 KLWX 030912 AAA
TAFDCA
TAF AMD
KDCA 030912Z 0309/0406 VRB04KT 6SM -SHRA OVC025
     FM031100 34005KT 5SM -SHRA BR OVC015
     FM031700 01005KT P6SM OVC015
     FM040100 05004KT P6SM BKN010
     FM040500 05004KT 6SM BR BKN003=



000
FTUS41 KLWX 030910 AAA
TAFIAD
TAF AMD
KIAD 030910Z 0309/0412 03004KT 6SM -RA OVC008
     FM031600 36005KT P6SM -SHRA BKN015
     FM031900 36004KT P6SM -SHRA BKN025
     FM040000 02004KT P6SM BKN020
     FM040200 03004KT P6SM OVC008
     FM040900 VRB03KT 3SM BR OVC003=



000
FTUS41 KLWX 030537
TAFMTN
TAF
KMTN 030537Z 0306/0406 NIL=



000
FTUS41 KLWX 030537
TAFIAD
TAF
KIAD 030537Z 0306/0412 03004KT 6SM -SHRA OVC008
     FM031600 36005KT P6SM -SHRA BKN015
     FM031900 36004KT P6SM -SHRA BKN025
     FM040000 04004KT P6SM BKN020
     FM040200 03004KT P6SM BKN008
     FM040900 VRB03KT 3SM BR BKN003=



000
FTUS41 KLWX 030537
TAFDCA
TAF
KDCA 030537Z 0306/0406 VRB04KT 6SM -SHRA OVC008
     FM030900 34005KT 5SM -SHRA BR OVC008
     FM031800 01005KT P6SM OVC015
     FM040100 05004KT P6SM BKN010
     FM040500 05004KT 6SM BR BKN003=



000
FTUS41 KLWX 030537
TAFMRB
TAF
KMRB 030537Z 0306/0406 36005KT 3SM -SHRA BR OVC008
     FM031600 36004KT P6SM BKN015
     FM031900 36004KT P6SM -SHRA BKN025
     FM032100 36005KT P6SM -SHRA BKN040
     FM040000 VRB03KT P6SM BKN050
     FM040400 00000KT 3SM BR BKN050=



000
FTUS41 KLWX 030537
TAFBWI
TAF
KBWI 030537Z 0306/0412 05005KT 5SM -SHRA BR OVC008
     FM031200 01007KT 3SM -SHRA BR OVC008
     FM031800 02005KT P6SM OVC008
     FM040000 08004KT P6SM OVC008
     FM040500 08004KT 3SM BR BKN003=



000
FTUS41 KLWX 030537
TAFCHO
TAF
KCHO 030537Z 0306/0406 20004KT 6SM -SHRA OVC090
     FM030900 00000KT 3SM -SHRA BR OVC040
     FM031200 VRB03KT 3SM -SHRA BR OVC008
     FM031400 VRB03KT 5SM -SHRA BR BKN020
     FM031600 VRB03KT P6SM -SHRA BKN040
     FM040000 00000KT P6SM BKN110=



000
FTUS41 KLWX 030223 AAC
TAFCHO
TAF AMD
KCHO 030223Z 0302/0324 20005KT 3SM -SHRA OVC050
     FM030900 00000KT 3SM -SHRA OVC060
     FM031200 VRB03KT P6SM -SHRA OVC040
     FM031800 VRB03KT P6SM BKN040=



000
FTUS41 KLWX 030223 AAC
TAFCHO
TAF AMD
KCHO 030223Z 0302/0324 20005KT 3SM -SHRA OVC050
     FM030900 00000KT 3SM -SHRA OVC060
     FM031200 VRB03KT P6SM -SHRA OVC040
     FM031800 VRB03KT P6SM BKN040=



000
FTUS41 KLWX 030222 AAB
TAFMRB
TAF AMD
KMRB 030222Z 0302/0324 35004KT 3SM SHRA OVC050
     FM031200 36005KT P6SM -SHRA OVC008
     FM031300 36005KT P6SM -SHRA OVC015
     FM031600 35004KT P6SM -SHRA OVC025
     FM031800 35004KT P6SM BKN025
     FM032000 35005KT P6SM BKN045=



000
FTUS41 KLWX 030222 AAB
TAFMRB
TAF AMD
KMRB 030222Z 0302/0324 35004KT 3SM SHRA OVC050
     FM031200 36005KT P6SM -SHRA OVC008
     FM031300 36005KT P6SM -SHRA OVC015
     FM031600 35004KT P6SM -SHRA OVC025
     FM031800 35004KT P6SM BKN025
     FM032000 35005KT P6SM BKN045=



000
FTUS41 KLWX 030221 AAD
TAFBWI
TAF AMD
KBWI 030221Z 0302/0406 08008KT 3SM -SHRA OVC050
     FM030900 01005KT 3SM -SHRA OVC008
     FM031200 36008KT P6SM -SHRA OVC008
     FM031600 01006KT P6SM -SHRA OVC015
     FM031800 02005KT P6SM BKN015
     FM032000 05005KT P6SM BKN025
     FM040400 VRB03KT P6SM BKN008=



000
FTUS41 KLWX 030221 AAD
TAFBWI
TAF AMD
KBWI 030221Z 0302/0406 08008KT 3SM -SHRA OVC050
     FM030900 01005KT 3SM -SHRA OVC008
     FM031200 36008KT P6SM -SHRA OVC008
     FM031600 01006KT P6SM -SHRA OVC015
     FM031800 02005KT P6SM BKN015
     FM032000 05005KT P6SM BKN025
     FM040400 VRB03KT P6SM BKN008=



000
FTUS41 KLWX 030220 AAG
TAFDCA
TAF AMD
KDCA 030220Z 0302/0324 09008KT 3SM -SHRA OVC050
     FM030900 32005KT 3SM -SHRA OVC040
     FM031200 35007KT P6SM -SHRA OVC008
     FM031600 36005KT P6SM -SHRA OVC015
     FM031800 01005KT P6SM BKN015
     FM032100 04005KT P6SM BKN025=



000
FTUS41 KLWX 030219 AAE
TAFIAD
TAF AMD
KIAD 030219Z 0302/0406 07007KT 3SM -SHRA OVC050
     FM031200 34006KT P6SM -SHRA OVC008
     FM031600 35005KT P6SM -SHRA OVC015
     FM031800 36004KT P6SM BKN015
     FM032000 01005KT P6SM BKN025
     FM040300 VRB03KT P6SM BKN015=



000
FTUS41 KLWX 030051 AAF
TAFDCA
TAF AMD
KDCA 030051Z 0301/0324 18006KT 3SM -TSRA OVC040CB
      TEMPO 0301/0302 VRB35KT 2SM TSRA
     FM030200 09004KT 3SM SHRA VCTS OVC050CB
     FM030400 03004KT 3SM SHRA VCTS OVC050CB
     FM030900 32005KT 3SM SHRA VCTS OVC040CB
     FM031200 35007KT P6SM -SHRA OVC008
     FM031600 36005KT P6SM -SHRA OVC015
     FM031800 01005KT P6SM BKN015
     FM032100 04005KT P6SM BKN025=



000
FTUS41 KLWX 022339 AAE
TAFDCA
TAF AMD
KDCA 022339Z 0300/0324 18006KT 3SM -TSRA OVC040CB
      TEMPO 0300/0301 VRB25KT 2SM TSRA
     FM030200 09004KT 3SM SHRA VCTS OVC050CB
     FM030400 03004KT 3SM SHRA VCTS OVC050CB
     FM030900 32005KT 3SM SHRA VCTS OVC040CB
     FM031200 35007KT P6SM -SHRA OVC008
     FM031600 36005KT P6SM -SHRA OVC015
     FM031800 01005KT P6SM BKN015
     FM032100 04005KT P6SM BKN025=



000
FTUS41 KLWX 022339 AAA
TAFMRB
TAF AMD
KMRB 022339Z 0300/0324 35004KT 3SM SHRA VCTS OVC050CB
     FM031200 36005KT P6SM -SHRA OVC008
     FM031300 36005KT P6SM -SHRA OVC015
     FM031600 35004KT P6SM -SHRA OVC025
     FM031800 35004KT P6SM BKN025
     FM032000 35005KT P6SM BKN045=



000
FTUS41 KLWX 022339 AAC
TAFBWI
TAF AMD
KBWI 022339Z 0300/0406 13006KT 3SM -TSRA OVC040CB
      TEMPO 0300/0301 VRB20KT 2SM TSRA
     FM030200 08004KT 3SM SHRA VCTS OVC050CB
     FM030900 01005KT 3SM SHRA OVC008
     FM031200 36008KT P6SM -SHRA OVC008
     FM031600 01006KT P6SM -SHRA OVC015
     FM031800 02005KT P6SM BKN015
     FM032000 05005KT P6SM BKN025
     FM040400 VRB03KT P6SM BKN008=



000
FTUS41 KLWX 022339 AAD
TAFIAD
TAF AMD
KIAD 022339Z 0300/0406 13006KT 3SM -TSRA OVC040CB
      TEMPO 0300/0301 VRB20KT 2SM TSRA
     FM030200 VRB03KT 3SM SHRA VCTS OVC050CB
     FM031200 34006KT P6SM -SHRA OVC008
     FM031600 35005KT P6SM -SHRA OVC015
     FM031800 36004KT P6SM BKN015
     FM032000 01005KT P6SM BKN025
     FM040300 VRB03KT P6SM BKN015=



000
FTUS41 KLWX 022339 AAB
TAFCHO
TAF AMD
KCHO 022339Z 0300/0324 19006KT 3SM -TSRA OVC050CB
     FM030200 20005KT 3SM TSRA OVC050CB
     FM030600 19004KT 3SM SHRA VCTS OVC050CB
     FM030900 00000KT 3SM SHRA VCTS OVC060CB
     FM031200 VRB03KT P6SM -SHRA OVC040
     FM031800 VRB03KT P6SM BKN040=



000
FTUS41 KLWX 022339 AAA
TAFMTN
TAF AMD
KMTN 022339Z 0300/0324 VRB03KT 3SM SHRA VCTS OVC040CB
     FM030700 05005KT 3SM SHRA OVC008
     FM030900 03005KT 3SM SHRA OVC008
     FM031200 36009KT 5SM -SHRA OVC008
     FM031600 01006KT 5SM -SHRA OVC015
     FM031800 02005KT P6SM BKN015
     FM032300 08004KT P6SM BKN015
      AMD NOT SKED 0302/0312=



000
FTUS41 KLWX 022305 AAB
TAFBWI
TAF AMD
KBWI 022305Z 0223/0324 15005KT P6SM VCTS SCT040CB
      TEMPO 0223/0224 VRB20KT 3SM -TSRA
     FM030000 VRB03KT 3SM -SHRA VCTS OVC060CB
     FM030600 04005KT 3SM -RA OVC003
     FM031200 35009KT 2SM RA OVC003
     FM031400 36007KT 6SM -SHRA OVC015
     FM031900 02004KT P6SM BKN025=



000
FTUS41 KLWX 022231 AAC
TAFIAD
TAF AMD
KIAD 022231Z 0223/0324 15007KT P6SM VCTS SCT040CB
     FM030000 29005KT 5SM -SHRA VCTS OVC060CB
     FM030400 02005KT 5SM -SHRA VCTS OVC050CB
     FM030600 VRB04KT 2SM RA BR OVC008
     FM031200 33005KT 6SM -SHRA OVC008
     FM031800 36004KT P6SM BKN025=



000
FTUS41 KLWX 022224 AAD
TAFDCA
TAF AMD
KDCA 022224Z 0222/0318 18008KT P6SM VCTS BKN040CB
      TEMPO 0222/0224 VRB35KT 3SM TSGS
     FM030000 21004KT P6SM -SHRA VCTS OVC060CB
     FM030400 36004KT P6SM -SHRA VCTS OVC050CB
     FM030600 VRB04KT 3SM -RA BR OVC008
     FM031200 34007KT P6SM -RA OVC008
     FM031400 36006KT P6SM -SHRA OVC015=



000
FTUS41 KLWX 022154 AAC
TAFDCA
TAF AMD
KDCA 022154Z 0222/0318 18008KT P6SM VCTS BKN040CB
      TEMPO 0222/0224 VRB35KT 3SM -TSRA
     FM030000 21004KT P6SM -SHRA VCTS OVC060CB
     FM030400 36004KT P6SM -SHRA VCTS OVC050CB
     FM030600 VRB04KT 3SM -RA BR OVC008
     FM031200 34007KT P6SM -RA OVC008
     FM031400 36006KT P6SM -SHRA OVC015=



000
FTUS41 KLWX 022146 AAB
TAFIAD
TAF AMD
KIAD 022146Z 0222/0324 18007KT P6SM VCTS SCT040CB
      TEMPO 0222/0223 VRB20KT 3SM -TSRA
     FM030000 29005KT 5SM -SHRA VCTS OVC060CB
     FM030400 02005KT 5SM -SHRA VCTS OVC050CB
     FM030600 VRB04KT 2SM RA BR OVC008
     FM031200 33005KT 6SM -SHRA OVC008
     FM031800 36004KT P6SM BKN025=



000
FTUS41 KLWX 022117 AAB
TAFDCA
TAF AMD
KDCA 022117Z 0221/0318 18008KT P6SM VCTS BKN040CB
      TEMPO 0221/0223 VRB20KT 3SM -TSRA
     FM030000 21004KT P6SM -SHRA VCTS OVC060CB
     FM030400 36004KT P6SM -SHRA VCTS OVC050CB
     FM030600 VRB04KT 3SM -RA BR OVC008
     FM031200 34007KT P6SM -RA OVC008
     FM031400 36006KT P6SM -SHRA OVC015=



000
FTUS41 KLWX 022102 CCA
TAFIAD
TAF COR
KIAD 022102Z 0221/0324 18007KT P6SM VCTS SCT040CB
     FM030000 29005KT 5SM -SHRA VCTS OVC060CB
     FM030400 02005KT 5SM -SHRA VCTS OVC050CB
     FM030600 VRB04KT 2SM RA BR OVC008
     FM031200 33005KT 6SM -SHRA OVC008
     FM031800 36004KT P6SM BKN025=



000
FTUS41 KLWX 022101 AAA
TAFBWI
TAF AMD
KBWI 022101Z 0221/0324 15005KT P6SM SCT040
     FM030000 VRB03KT 3SM -SHRA VCTS OVC060CB
     FM030600 04005KT 3SM -RA OVC003
     FM031200 35009KT 2SM RA OVC003
     FM031400 36007KT 6SM -SHRA OVC015
     FM031900 02004KT P6SM BKN025=



000
FTUS41 KLWX 022101 AAA
TAFDCA
TAF AMD
KDCA 022101Z 0221/0318 18008KT P6SM VCSH SCT040
     FM030000 21004KT P6SM -SHRA VCTS OVC060CB
     FM030400 36004KT P6SM -SHRA VCTS OVC050CB
     FM030600 VRB04KT 3SM -RA BR OVC008
     FM031200 34007KT P6SM -RA OVC008
     FM031400 36006KT P6SM -SHRA OVC015=



000
FTUS41 KLWX 022100 AAA
TAFIAD
TAF AMD
KIAD 022100Z 0221/0324 18007KT P6SM SCT040
     FM030000 29005KT 5SM -SHRA VCTS OVC060CB
     FM030400 02005KT 5SM -SHRA VCTS OVC050CB
     FM030600 VRB04KT 2SM RA BR OVC008
     FM031200 33005KT 6SM -SHRA OVC008
     FM031800 36004KT P6SM BKN025=



000
FTUS41 KLWX 022040 AAA
TAFCHO
TAF AMD
KCHO 022040Z 0221/0318 19008KT P6SM VCTS BKN050CB
      TEMPO 0221/0223 VRB20KT 3SM TSRA
     FM030000 19005KT P6SM -SHRA VCTS OVC050CB
     FM030600 19005KT 6SM -SHRA OVC015
     FM031000 00000KT 6SM -SHRA OVC008
     FM031500 00000KT 6SM -SHRA OVC050=



000
FTUS41 KLWX 021743
TAFBWI
TAF
KBWI 021743Z 0218/0324 24005KT P6SM BKN015
     FM022100 15005KT P6SM BKN060
     FM030000 VRB03KT 3SM -SHRA VCTS OVC060CB
     FM030600 04005KT 3SM -RA OVC003
     FM031200 35009KT 2SM RA OVC003
     FM031400 36007KT 6SM -SHRA OVC015
     FM031900 02004KT P6SM BKN025=



000
FTUS41 KLWX 021743
TAFMTN
TAF
KMTN 021743Z 0218/0318 13005KT 3SM BR BKN008
     FM022200 13004KT 3SM BR BKN025
     FM030000 VRB04KT 3SM -SHRA OVC025
     FM030600 06006KT 1 1/2SM RA OVC003
     FM031200 35010KT 3SM -RA BR OVC008
     FM031600 01006KT 3SM -SHRA OVC015=



000
FTUS41 KLWX 021743
TAFIAD
TAF
KIAD 021743Z 0218/0324 22007KT P6SM FEW040
     FM030000 29004KT 5SM -SHRA VCTS OVC060CB
     FM030400 02004KT 5SM -SHRA VCTS OVC050CB
     FM030600 VRB04KT 2SM RA BR OVC008
     FM031200 33005KT 6SM -SHRA OVC008
     FM031800 36004KT P6SM BKN025=



000
FTUS41 KLWX 021743
TAFMRB
TAF
KMRB 021743Z 0218/0318 20007KT P6SM FEW070
     FM022200 29005KT P6SM BKN060
     FM030000 33004KT P6SM -RA OVC050
     FM030600 VRB03KT 3SM -RA OVC008
     FM031600 35004KT 6SM -SHRA OVC025=



000
FTUS41 KLWX 021743
TAFDCA
TAF
KDCA 021743Z 0218/0318 16007KT P6SM BKN025
     FM022100 20008KT P6SM SCT040
     FM030000 21004KT P6SM -SHRA VCTS OVC060CB
     FM030400 36004KT P6SM -SHRA VCTS OVC050CB
     FM030600 VRB04KT 3SM -RA BR OVC008
     FM031200 34007KT P6SM -RA OVC008
     FM031400 36006KT P6SM -SHRA OVC015=



000
FTUS41 KLWX 021743
TAFCHO
TAF
KCHO 021743Z 0218/0318 19008KT P6SM VCTS BKN050CB
     FM030000 19005KT P6SM -SHRA VCTS OVC050CB
     FM030600 19005KT 6SM -SHRA OVC015
     FM031000 00000KT 6SM -SHRA OVC008
     FM031500 00000KT 6SM -SHRA OVC050=



000
FTUS41 KLWX 021743
TAFDCA
TAF
KDCA 021743Z 0218/0318 16007KT P6SM BKN025
     FM022100 20008KT P6SM SCT040
     FM030000 21004KT P6SM -SHRA VCTS OVC060CB
     FM030400 36004KT P6SM -SHRA VCTS OVC050CB
     FM030600 VRB04KT 3SM -RA BR OVC008
     FM031200 34007KT P6SM -RA OVC008
     FM031400 36006KT P6SM -SHRA OVC015=



000
FTUS41 KLWX 021743
TAFMTN
TAF
KMTN 021743Z 0218/0318 13005KT 3SM BR BKN008
     FM022200 13004KT 3SM BR BKN025
     FM030000 VRB04KT 3SM -SHRA OVC025
     FM030600 06006KT 1 1/2SM RA OVC003
     FM031200 35010KT 3SM -RA BR OVC008
     FM031600 01006KT 3SM -SHRA OVC015=



000
FTUS41 KLWX 021743
TAFMRB
TAF
KMRB 021743Z 0218/0318 20007KT P6SM FEW070
     FM022200 29005KT P6SM BKN060
     FM030000 33004KT P6SM -RA OVC050
     FM030600 VRB03KT 3SM -RA OVC008
     FM031600 35004KT 6SM -SHRA OVC025=



000
FTUS41 KLWX 021743
TAFCHO
TAF
KCHO 021743Z 0218/0318 19008KT P6SM VCTS BKN050CB
     FM030000 19005KT P6SM -SHRA VCTS OVC050CB
     FM030600 19005KT 6SM -SHRA OVC015
     FM031000 00000KT 6SM -SHRA OVC008
     FM031500 00000KT 6SM -SHRA OVC050=



000
FTUS41 KLWX 021743
TAFIAD
TAF
KIAD 021743Z 0218/0324 22007KT P6SM FEW040
     FM030000 29004KT 5SM -SHRA VCTS OVC060CB
     FM030400 02004KT 5SM -SHRA VCTS OVC050CB
     FM030600 VRB04KT 2SM RA BR OVC008
     FM031200 33005KT 6SM -SHRA OVC008
     FM031800 36004KT P6SM BKN025=



000
FTUS41 KLWX 021647 AAB
TAFIAD
TAF AMD
KIAD 021647Z 0217/0318 16005KT P6SM SCT015
     FM021800 23008KT P6SM SCT040
     FM022000 21008KT P6SM VCTS BKN035CB
     FM030000 23006KT 5SM -SHRA BR VCTS OVC050CB
     FM030200 27005KT 3SM -SHRA BR OVC040
     FM030500 35004KT 2SM SHRA BR OVC003
     FM031500 36006KT 3SM -SHRA OVC008=



000
FTUS41 KLWX 021559 AAA
TAFMRB
TAF AMD
KMRB 021559Z 0216/0312 19006KT P6SM SCT050
     FM030000 35005KT P6SM -SHRA OVC050
     FM030300 34004KT 3SM SHRA BR OVC025
     FM030500 01004KT 2SM SHRA BR OVC008=



000
FTUS41 KLWX 021559 AAA
TAFMRB
TAF AMD
KMRB 021559Z 0216/0312 19006KT P6SM SCT050
     FM030000 35005KT P6SM -SHRA OVC050
     FM030300 34004KT 3SM SHRA BR OVC025
     FM030500 01004KT 2SM SHRA BR OVC008=



000
FTUS41 KLWX 021503 AAA
TAFBWI
TAF AMD
KBWI 021503Z 0215/0318 16004KT 3SM BR OVC004
     FM021800 19007KT P6SM OVC025
     FM030000 19005KT 5SM -SHRA BR VCTS OVC050CB
     FM030200 08005KT 5SM -SHRA VCTS OVC025CB
     FM030600 01005KT 3SM SHRA BR OVC003
     FM031500 01006KT 3SM -SHRA OVC008=



000
FTUS41 KLWX 021503 AAA
TAFDCA
TAF AMD
KDCA 021503Z 0215/0312 17005KT P6SM OVC006
     FM021800 21008KT P6SM BKN035
     FM022200 22007KT P6SM VCTS BKN035CB
     FM030000 22006KT P6SM -SHRA VCTS OVC050CB
     FM030100 23006KT P6SM -SHRA OVC040
     FM030400 28005KT 3SM -SHRA BR OVC030
     FM030600 36004KT 3SM -SHRA BR OVC008
     FM030700 36004KT 2SM SHRA BR OVC003=



000
FTUS41 KLWX 021503 AAA
TAFDCA
TAF AMD
KDCA 021503Z 0215/0312 17005KT P6SM OVC006
     FM021800 21008KT P6SM BKN035
     FM022200 22007KT P6SM VCTS BKN035CB
     FM030000 22006KT P6SM -SHRA VCTS OVC050CB
     FM030100 23006KT P6SM -SHRA OVC040
     FM030400 28005KT 3SM -SHRA BR OVC030
     FM030600 36004KT 3SM -SHRA BR OVC008
     FM030700 36004KT 2SM SHRA BR OVC003=



000
FTUS41 KLWX 021503 AAA
TAFBWI
TAF AMD
KBWI 021503Z 0215/0318 16004KT 3SM BR OVC004
     FM021800 19007KT P6SM OVC025
     FM030000 19005KT 5SM -SHRA BR VCTS OVC050CB
     FM030200 08005KT 5SM -SHRA VCTS OVC025CB
     FM030600 01005KT 3SM SHRA BR OVC003
     FM031500 01006KT 3SM -SHRA OVC008=



000
FTUS41 KLWX 021501 AAA
TAFIAD
TAF AMD
KIAD 021501Z 0215/0318 21008KT 6SM BR OVC008
     FM021800 23008KT P6SM BKN035
     FM022000 21008KT P6SM VCTS BKN035CB
     FM030000 23006KT 5SM -SHRA BR VCTS OVC050CB
     FM030200 27005KT 3SM -SHRA BR OVC040
     FM030500 35004KT 2SM SHRA BR OVC003
     FM031500 36006KT 3SM -SHRA OVC008=



000
FTUS41 KLWX 021144 CCA
TAFCHO
TAF COR
KCHO 021144Z 0212/0312 21004KT 1SM BR OVC003
     FM021400 22005KT 4SM BR BKN035
     FM022100 22014KT P6SM -SHRA VCTS OVC050CB
     FM030100 22005KT P6SM -SHRA VCTS OVC040CB
     FM030300 22004KT 2SM SHRA BR OVC030
     FM030500 VRB03KT 2SM SHRA BR OVC003=



000
FTUS41 KLWX 021144 CCA
TAFIAD
TAF COR
KIAD 021144Z 0212/0318 VRB04KT 1 1/2SM -SHRA BR OVC004
     FM021300 19006KT 2SM BR OVC008
     FM022000 21008KT P6SM VCTS BKN035CB
     FM030000 23006KT 5SM -SHRA BR VCTS OVC050CB
     FM030200 27005KT 3SM -SHRA BR OVC040
     FM030500 35004KT 2SM SHRA BR OVC003
     FM031500 36006KT 3SM -SHRA OVC008=



000
FTUS41 KLWX 021140
TAFMTN
TAF
KMTN 021140Z 0212/0312 00000KT 1 1/2SM -SHRA BR OVC004
     FM021400 13005KT 2SM BR OVC003
     FM021800 18007KT P6SM OVC008
     FM030000 18004KT P6SM -SHRA VCTS OVC050CB
     FM030200 09005KT P6SM -SHRA OVC015
     FM030400 06005KT 6SM SHRA BR OVC003=



000
FTUS41 KLWX 021140
TAFDCA
TAF
KDCA 021140Z 0212/0312 12005KT 1 1/2SM -SHRA OVC004
     FM021330 18005KT 2SM BR OVC003
     FM022200 22007KT P6SM VCTS BKN035CB
     FM030000 22006KT P6SM -SHRA VCTS OVC050CB
     FM030100 23006KT P6SM -SHRA OVC040
     FM030400 28005KT 3SM -SHRA BR OVC030
     FM030600 36004KT 3SM -SHRA BR OVC008
     FM030700 36004KT 2SM SHRA BR OVC003=



000
FTUS41 KLWX 021140
TAFCHO
TAF
KCHO 021140Z 0212/0312 21004KT 1/4SM FG OVC004
     FM021400 22005KT 4SM BR BKN035
     FM022100 22014KT P6SM -SHRA VCTS OVC050CB
     FM030100 22005KT P6SM -SHRA VCTS OVC040CB
     FM030300 22004KT 2SM SHRA BR OVC030
     FM030500 VRB03KT 2SM SHRA BR OVC003=



000
FTUS41 KLWX 021140
TAFBWI
TAF
KBWI 021140Z 0212/0318 10005KT 1/4SM FG OVC003
     FM021300 14005KT 1SM -SHRA BR OVC003
     FM021400 12006KT 2SM BR OVC008
     FM021800 19007KT P6SM OVC025
     FM030000 19005KT 5SM -SHRA BR VCTS OVC050CB
     FM030200 08005KT 5SM -SHRA VCTS OVC025CB
     FM030600 01005KT 3SM SHRA BR OVC003
     FM031500 01006KT 3SM -SHRA OVC008=



000
FTUS41 KLWX 021140
TAFIAD
TAF
KIAD 021140Z 0212/0318 00000KT 1 1/2SM -SHRA BR OVC003
     FM021300 19006KT 2SM BR OVC008
     FM022000 21008KT P6SM VCTS BKN035CB
     FM030000 23006KT 5SM -SHRA BR VCTS OVC050CB
     FM030200 27005KT 3SM -SHRA BR OVC040
     FM030500 35004KT 2SM SHRA BR OVC003
     FM031500 36006KT 3SM -SHRA OVC008=



000
FTUS41 KLWX 021140
TAFDCA
TAF
KDCA 021140Z 0212/0312 12005KT 1 1/2SM -SHRA OVC004
     FM021330 18005KT 2SM BR OVC003
     FM022200 22007KT P6SM VCTS BKN035CB
     FM030000 22006KT P6SM -SHRA VCTS OVC050CB
     FM030100 23006KT P6SM -SHRA OVC040
     FM030400 28005KT 3SM -SHRA BR OVC030
     FM030600 36004KT 3SM -SHRA BR OVC008
     FM030700 36004KT 2SM SHRA BR OVC003=



000
FTUS41 KLWX 021140
TAFIAD
TAF
KIAD 021140Z 0212/0318 00000KT 1 1/2SM -SHRA BR OVC003
     FM021300 19006KT 2SM BR OVC008
     FM022000 21008KT P6SM VCTS BKN035CB
     FM030000 23006KT 5SM -SHRA BR VCTS OVC050CB
     FM030200 27005KT 3SM -SHRA BR OVC040
     FM030500 35004KT 2SM SHRA BR OVC003
     FM031500 36006KT 3SM -SHRA OVC008=



000
FTUS41 KLWX 021140
TAFBWI
TAF
KBWI 021140Z 0212/0318 10005KT 1/4SM FG OVC003
     FM021300 14005KT 1SM -SHRA BR OVC003
     FM021400 12006KT 2SM BR OVC008
     FM021800 19007KT P6SM OVC025
     FM030000 19005KT 5SM -SHRA BR VCTS OVC050CB
     FM030200 08005KT 5SM -SHRA VCTS OVC025CB
     FM030600 01005KT 3SM SHRA BR OVC003
     FM031500 01006KT 3SM -SHRA OVC008=



000
FTUS41 KLWX 021140
TAFMTN
TAF
KMTN 021140Z 0212/0312 00000KT 1 1/2SM -SHRA BR OVC004
     FM021400 13005KT 2SM BR OVC003
     FM021800 18007KT P6SM OVC008
     FM030000 18004KT P6SM -SHRA VCTS OVC050CB
     FM030200 09005KT P6SM -SHRA OVC015
     FM030400 06005KT 6SM SHRA BR OVC003=



000
FTUS41 KLWX 021140
TAFCHO
TAF
KCHO 021140Z 0212/0312 21004KT 1/4SM FG OVC004
     FM021400 22005KT 4SM BR BKN035
     FM022100 22014KT P6SM -SHRA VCTS OVC050CB
     FM030100 22005KT P6SM -SHRA VCTS OVC040CB
     FM030300 22004KT 2SM SHRA BR OVC030
     FM030500 VRB03KT 2SM SHRA BR OVC003=



000
FTUS41 KLWX 021140
TAFMRB
TAF
KMRB 021140Z 0212/0312 15004KT 2SM BR OVC002
     FM021400 19005KT 3SM BR OVC003
     FM021600 26008KT P6SM BKN050
     FM030000 35005KT P6SM -SHRA OVC050
     FM030300 34004KT 3SM SHRA BR OVC025
     FM030500 01004KT 2SM SHRA BR OVC008=



000
FTUS41 KLWX 020920 AAA
TAFBWI
TAF AMD
KBWI 020920Z 0209/0312 07004KT 1SM -DZ BR OVC003
     FM021200 11005KT 1SM BR OVC003
     FM021500 17005KT P6SM OVC005
     FM021900 22008KT P6SM BKN040
     FM022200 22007KT P6SM -SHRA VCTS BKN050CB
     FM030200 32006KT 6SM -SHRA OVC025=



000
FTUS41 KLWX 020919 AAA
TAFDCA
TAF AMD
KDCA 020919Z 0209/0306 10004KT 2SM -DZ BR OVC003
     FM021100 16005KT 3SM -DZ BR OVC003
     FM021500 20005KT P6SM OVC005
     FM021700 21009KT P6SM BKN025
     FM022200 23008KT P6SM -SHRA VCTS BKN050CB
     FM030200 30006KT 6SM -SHRA OVC025=



000
FTUS41 KLWX 020919 AAA
TAFDCA
TAF AMD
KDCA 020919Z 0209/0306 10004KT 2SM -DZ BR OVC003
     FM021100 16005KT 3SM -DZ BR OVC003
     FM021500 20005KT P6SM OVC005
     FM021700 21009KT P6SM BKN025
     FM022200 23008KT P6SM -SHRA VCTS BKN050CB
     FM030200 30006KT 6SM -SHRA OVC025=



000
FTUS41 KLWX 020918 AAA
TAFIAD
TAF AMD
KIAD 020918Z 0209/0312 09004KT 1/2SM -DZ FG OVC003
     FM021200 15004KT 3/4SM BR OVC003
     FM021700 22009KT P6SM BKN025
     FM022200 24007KT P6SM -SHRA VCTS BKN050CB
     FM030200 31005KT 3SM -SHRA OVC030=



000
FTUS41 KLWX 020734 AAA
TAFCHO
TAF AMD
KCHO 020734Z 0208/0306 VRB03KT 1SM -DZ BR OVC003
     FM021200 22005KT 1SM BR OVC005
     FM021500 22006KT P6SM BKN020
     FM021600 22007KT P6SM BKN050
     FM022200 22008KT P6SM -SHRA VCTS BKN050CB
     FM030200 23005KT 5SM -SHRA OVC050=



000
FTUS41 KLWX 020541
TAFBWI
TAF
KBWI 020541Z 0206/0312 08004KT 2SM -SHRA OVC003
     FM020900 07004KT 1SM -DZ BR OVC003
     FM021200 11005KT 1SM BR OVC003
     FM021500 17005KT P6SM BKN003
     FM022000 22008KT P6SM BKN040
     FM022200 22007KT P6SM -SHRA VCTS BKN050CB
     FM030200 32006KT 6SM -SHRA OVC025=



000
FTUS41 KLWX 020541
TAFDCA
TAF
KDCA 020541Z 0206/0306 09004KT 6SM -SHRA OVC003
     FM020900 10004KT 3SM -DZ BR OVC003
     FM021100 16005KT 3SM -DZ BR OVC003
     FM021500 20005KT P6SM BKN003
     FM021900 21009KT P6SM BKN035
     FM022200 23008KT P6SM -SHRA VCTS BKN090CB
     FM030200 30006KT 6SM -SHRA OVC025=



000
FTUS41 KLWX 020541
TAFIAD
TAF
KIAD 020541Z 0206/0312 11004KT P6SM OVC003
     FM020900 09004KT 1/2SM -DZ FG OVC003
     FM021200 15004KT 3/4SM BR OVC003
     FM021900 22009KT P6SM BKN040
     FM022200 24007KT P6SM -SHRA VCTS BKN050CB
     FM030200 31005KT 3SM -SHRA OVC030=



000
FTUS41 KLWX 020541
TAFMTN
TAF
KMTN 020541Z 0206/0306 NIL=



000
FTUS41 KLWX 020541
TAFCHO
TAF
KCHO 020541Z 0206/0306 VRB03KT P6SM BKN008
     FM020900 VRB03KT 3SM -DZ BR BKN003
     FM021200 22005KT 1SM BR BKN005
     FM021500 22006KT P6SM SCT020
     FM021600 22007KT P6SM BKN100
     FM022200 22008KT P6SM -SHRA VCTS BKN050CB
     FM030200 23005KT 5SM -SHRA OVC050=



000
FTUS41 KLWX 020541
TAFMRB
TAF
KMRB 020541Z 0206/0306 VRB03KT 2SM BR BKN003
     FM021500 21007KT P6SM BKN008
     FM021700 23009KT P6SM BKN015
     FM021900 25009KT P6SM VCTS BKN050CB
     FM030100 33004KT 5SM -SHRA OVC080
     FM030300 36004KT 3SM -SHRA OVC025=



000
FTUS41 KLWX 020223 AAA
TAFIAD
TAF AMD
KIAD 020223Z 0202/0306 09005KT 2SM -DZ BR OVC003
      TEMPO 0203/0204 -TSRA OVC003CB
     FM020600 VRB04KT 2SM -DZ BR OVC003
     FM021200 16004KT 6SM BR BKN008 OVC015
     FM021600 16005KT P6SM BKN025
     FM021900 22009KT P6SM BKN050 BKN100
     FM022200 23006KT 5SM -SHRA BKN050 BKN100=



000
FTUS41 KLWX 020223 AAA
TAFIAD
TAF AMD
KIAD 020223Z 0202/0306 09005KT 2SM -DZ BR OVC003
      TEMPO 0203/0204 -TSRA OVC003CB
     FM020600 VRB04KT 2SM -DZ BR OVC003
     FM021200 16004KT 6SM BR BKN008 OVC015
     FM021600 16005KT P6SM BKN025
     FM021900 22009KT P6SM BKN050 BKN100
     FM022200 23006KT 5SM -SHRA BKN050 BKN100=



000
FTUS41 KLWX 020117 AAA
TAFMRB
TAF AMD
KMRB 020117Z 0201/0224 11005KT P6SM BKN008 OVC015
     FM020200 VRB03KT 5SM -SHRA BR OVC003
      TEMPO 0202/0203 VRB10KT TSRA OVC003CB
     FM020600 VRB03KT 3/4SM BR OVC003
     FM021300 21006KT 5SM BR BKN015
     FM021400 23008KT P6SM BKN050
     FM022000 27009KT P6SM BKN050 BKN100=



000
FTUS41 KLWX 012327
TAFMRB
TAF
KMRB 012327Z 0200/0224 11005KT P6SM BKN008 OVC015
     FM020200 VRB03KT 5SM -SHRA BR OVC003
     FM020600 VRB03KT 3/4SM BR OVC003
     FM021300 21006KT 5SM BR BKN015
     FM021400 23008KT P6SM BKN050
     FM022000 27009KT P6SM BKN050 BKN100=



000
FTUS41 KLWX 012327
TAFIAD
TAF
KIAD 012327Z 0200/0306 09005KT 2SM -DZ BR OVC003
     FM020300 10005KT 2SM -SHRADZ BR OVC003
     FM020600 VRB04KT 2SM -DZ BR OVC003
     FM021200 16004KT 6SM BR BKN008 OVC015
     FM021600 16005KT P6SM BKN025
     FM021900 22009KT P6SM BKN050 BKN100
     FM022200 23006KT 5SM -SHRA BKN050 BKN100=



000
FTUS41 KLWX 012327
TAFDCA
TAF
KDCA 012327Z 0200/0224 07005KT 3SM -DZ BR OVC005
     FM020300 09005KT 3SM -SHRADZ BR OVC003
     FM020600 11005KT 3SM -DZ BR OVC003
     FM021400 19005KT P6SM BKN008 OVC015
     FM021600 21006KT P6SM BKN025
     FM021800 22009KT P6SM BKN050 BKN100
     FM022200 24008KT 5SM -SHRA BKN050 BKN100=



000
FTUS41 KLWX 012327
TAFMTN
TAF
KMTN 012327Z 0200/0224 08005KT 2SM -DZ BR OVC003
     FM021300 15005KT P6SM BKN008 OVC015
     FM021600 17007KT P6SM BKN015 OVC025
     FM022000 18007KT P6SM BKN050 BKN100
     FM022300 20007KT 5SM -SHRA BKN050 BKN100
      AMD NOT SKED 0202/0212=



000
FTUS41 KLWX 012327
TAFBWI
TAF
KBWI 012327Z 0200/0306 08005KT 2SM -DZ BR OVC003
     FM021300 15005KT P6SM BKN008 OVC015
     FM021600 22007KT P6SM BKN015 OVC025
     FM022000 24007KT P6SM BKN050 BKN100
     FM022300 23007KT 5SM -SHRA BKN050 BKN100
     FM030500 07006KT 5SM -SHRA BKN025 OVC050=



000
FTUS41 KLWX 012327
TAFCHO
TAF
KCHO 012327Z 0200/0224 VRB03KT 6SM BR BKN008 OVC015
     FM020100 VRB03KT 2SM -SHRADZ BR BKN003 OVC008
     FM020600 VRB03KT 2SM -DZ BR BKN003 OVC008
     FM021400 22006KT P6SM BKN015
     FM021600 22007KT P6SM BKN050
     FM022200 22008KT 5SM -SHRA BKN050 BKN100=



000
FTUS41 KLWX 012038 AAA
TAFDCA
TAF AMD
KDCA 012038Z 0121/0218 10007KT P6SM OVC009
     FM020100 10005KT 5SM -SHRA VCTS BKN008 OVC015CB
     FM020400 09005KT 3SM -SHRA VCTS BKN003 OVC015CB
     FM020600 09004KT 1 1/2SM BR OVC003
     FM020800 10004KT 1/2SM FG OVC003
     FM021200 18005KT 1SM BR BKN003
     FM021700 23008KT P6SM BKN015=



000
FTUS41 KLWX 012038 AAA
TAFIAD
TAF AMD
KIAD 012038Z 0121/0224 10007KT P6SM OVC009
     FM020100 10005KT 3SM -SHRA VCTS BKN008 OVC015CB
     FM020400 10005KT 1 1/2SM BR OVC003
     FM020800 10004KT 1/2SM FG OVC003
     FM021200 19004KT 3/4SM BR BKN003
     FM021600 24008KT P6SM BKN035
     FM022100 26008KT P6SM BKN080=



000
FTUS41 KLWX 012038 AAA
TAFBWI
TAF AMD
KBWI 012038Z 0121/0224 12007KT P6SM OVC008
     FM020000 08005KT 3SM BR OVC008
     FM020200 08005KT 3SM BR OVC003
     FM020300 08005KT 3SM -SHRA VCTS BKN003 OVC015CB
     FM020600 08004KT 2SM BR OVC003
     FM021400 20005KT 3SM BR BKN015
     FM022100 27007KT P6SM BKN080=



000
FTUS41 KLWX 011722
TAFIAD
TAF
KIAD 011722Z 0118/0224 17007KT P6SM OVC008
     FM020100 11005KT 3SM BR VCTS BKN008 OVC015CB
     FM020600 05005KT 1 1/2SM BR OVC003
     FM020800 10004KT 1/2SM FG OVC003
     FM021200 19004KT 3/4SM BR BKN003
     FM021600 24008KT P6SM BKN035
     FM022100 26008KT P6SM BKN080=



000
FTUS41 KLWX 011722
TAFDCA
TAF
KDCA 011722Z 0118/0218 17007KT P6SM OVC008
     FM020000 10005KT 6SM -SHRA VCTS BKN008 OVC015CB
     FM020400 09005KT 3SM -SHRA VCTS BKN003 OVC015CB
     FM020600 09004KT 1 1/2SM BR OVC003
     FM020800 10004KT 1/2SM FG OVC003
     FM021200 18005KT 1SM BR BKN003
     FM021700 23008KT P6SM BKN015=



000
FTUS41 KLWX 011722
TAFMTN
TAF
KMTN 011722Z 0118/0218 14007KT P6SM OVC008
     FM020000 08005KT 3SM BR OVC008
     FM020300 07004KT 4SM -SHRA VCTS BKN003 OVC015CB
     FM020600 08004KT 4SM BR OVC003
     FM021300 14005KT 3SM BR BKN003
     FM021600 20007KT P6SM BKN015=



000
FTUS41 KLWX 011722
TAFMRB
TAF
KMRB 011722Z 0118/0218 15007KT P6SM BKN015
     FM012000 14006KT P6SM BKN008
     FM020400 VRB03KT 1SM BR OVC003
     FM020700 VRB03KT 1/2SM FG OVC002
     FM021300 23007KT 3SM BR BKN003
     FM021500 24008KT P6SM BKN008
     FM021700 25009KT P6SM BKN015=



000
FTUS41 KLWX 011722
TAFBWI
TAF
KBWI 011722Z 0118/0224 14007KT P6SM OVC008
     FM020000 08005KT 3SM BR OVC008
     FM020200 08005KT 3SM BR OVC003
     FM020300 08005KT 3SM -SHRA VCTS BKN003 OVC015CB
     FM020600 08004KT 2SM BR OVC003
     FM021400 20005KT 3SM BR BKN015
     FM022100 27007KT P6SM BKN080=



000
FTUS41 KLWX 011722
TAFCHO
TAF
KCHO 011722Z 0118/0218 20007KT P6SM BKN008
     FM012100 20007KT P6SM BKN015
     FM020000 18004KT P6SM -SHRA VCTS BKN020CB
     FM020300 16004KT 3SM BR BKN003
     FM021000 22004KT 1/2SM FG BKN003
     FM021300 23006KT 1SM BR SCT003
     FM021500 22007KT P6SM SCT020
     FM021700 23008KT P6SM SCT250=



000
FTUS41 KLWX 011500 AAA
TAFBWI
TAF AMD
KBWI 011500Z 0115/0218 12007KT 5SM -RA OVC008
     FM020600 09004KT 3SM -SHRA OVC003
     FM020900 07004KT 3SM BR OVC008
     FM021100 17005KT 3SM BR BKN008
     FM021200 20005KT 3SM BR BKN003
     FM021400 26006KT 3SM BR BKN003
     FM021500 28007KT 6SM BR BKN015=



000
FTUS41 KLWX 011500 AAA
TAFBWI
TAF AMD
KBWI 011500Z 0115/0218 12007KT 5SM -RA OVC008
     FM020600 09004KT 3SM -SHRA OVC003
     FM020900 07004KT 3SM BR OVC008
     FM021100 17005KT 3SM BR BKN008
     FM021200 20005KT 3SM BR BKN003
     FM021400 26006KT 3SM BR BKN003
     FM021500 28007KT 6SM BR BKN015=



000
FTUS41 KLWX 011459 AAA
TAFDCA
TAF AMD
KDCA 011459Z 0115/0212 15007KT 5SM -RA OVC009
     FM011700 17006KT P6SM OVC008
     FM012100 16006KT P6SM -SHRA OVC015
     FM020000 12005KT P6SM -SHRA BKN010
     FM020900 17004KT 3SM BR OVC010=



000
FTUS41 KLWX 011458 AAA
TAFIAD
TAF AMD
KIAD 011458Z 0115/0218 16009KT 5SM -RA OVC009
     FM011800 17007KT P6SM OVC010
     FM012100 17006KT P6SM -SHRA OVC015
     FM020300 13005KT 3SM -SHRA BKN015
     FM020900 14004KT 2SM BR OVC015
     FM021100 21004KT 2SM BR BKN015
     FM021500 28009KT 4SM BR BKN050=



000
FTUS41 KLWX 011318 AAA
TAFMTN
TAF AMD
KMTN 011318Z 0113/0212 14007KT P6SM -RA OVC015
     FM011600 15008KT 3SM -RA OVC008
     FM011800 14007KT P6SM OVC008
     FM012100 12005KT P6SM -SHRA OVC008
     FM020300 07004KT 3SM -SHRA BKN003
     FM020900 07004KT 3SM BR OVC008
     FM021100 15005KT 3SM BR OVC008=



000
FTUS41 KLWX 011317 AAA
TAFMRB
TAF AMD
KMRB 011317Z 0113/0212 15005KT P6SM -RA OVC006
     FM011700 16006KT P6SM BKN020
     FM012100 15006KT P6SM -SHRA VCTS BKN015CB
     FM020000 11004KT 5SM -SHRA BKN020
     FM020300 VRB03KT 2SM -SHRA BKN025
     FM020900 VRB03KT 2SM BR OVC010=



000
FTUS41 KLWX 011133
TAFDCA
TAF
KDCA 011133Z 0112/0212 16009KT P6SM -RA OVC008
     FM011700 17006KT P6SM OVC008
     FM012100 16006KT P6SM -SHRA OVC015
     FM020000 12005KT P6SM -SHRA BKN010
     FM020900 17004KT 3SM BR OVC010=



000
FTUS41 KLWX 011133
TAFBWI
TAF
KBWI 011133Z 0112/0218 12005KT 5SM -RA OVC008
     FM020600 09004KT 3SM -SHRA OVC003
     FM020900 07004KT 3SM BR OVC008
     FM021100 17005KT 3SM BR BKN008
     FM021200 20005KT 3SM BR BKN003
     FM021400 26006KT 3SM BR BKN003
     FM021500 28007KT 6SM BR BKN015=



000
FTUS41 KLWX 011133
TAFMRB
TAF
KMRB 011133Z 0112/0212 16009KT 2SM -RA OVC008
     FM011700 16006KT P6SM BKN020
     FM012100 15006KT P6SM -SHRA VCTS BKN015CB
     FM020000 11004KT 5SM -SHRA BKN020
     FM020300 VRB03KT 2SM -SHRA BKN025
     FM020900 VRB03KT 2SM BR OVC010=



000
FTUS41 KLWX 011133
TAFIAD
TAF
KIAD 011133Z 0112/0218 16009KT P6SM -RA OVC009
     FM011800 17007KT P6SM OVC010
     FM012100 17006KT P6SM -SHRA OVC015
     FM020300 13005KT 3SM -SHRA BKN015
     FM020900 14004KT 2SM BR OVC015
     FM021100 21004KT 2SM BR BKN015
     FM021500 28009KT 4SM BR BKN050=



000
FTUS41 KLWX 011133
TAFMTN
TAF
KMTN 011133Z 0112/0212 14007KT P6SM -RA OVC015
     FM011300 14009KT 6SM -RA OVC008
     FM011600 15008KT 3SM -RA OVC003
     FM011800 14007KT P6SM OVC008
     FM012100 12005KT P6SM -SHRA OVC008
     FM020300 07004KT 3SM -SHRA BKN003
     FM020900 07004KT 3SM BR OVC008
     FM021100 15005KT 3SM BR OVC008=



000
FTUS41 KLWX 011133
TAFCHO
TAF
KCHO 011133Z 0112/0212 16004KT P6SM -RA OVC006
     FM012100 20007KT P6SM VCTS BKN040CB
     FM020300 19005KT 3SM -SHRA OVC045
     FM020600 22004KT 2SM -SHRA BKN030=



000
FTUS41 KLWX 010917 AAC
TAFIAD
TAF AMD
KIAD 010917Z 0109/0212 15008KT P6SM -RA SCT010 OVC035
      TEMPO 0109/0110 BKN010
     FM011000 16008KT P6SM -RA OVC020
      TEMPO 0110/0112 BKN010
     FM011200 16009KT 3SM -RA OVC008
     FM011800 17007KT P6SM OVC010
     FM012100 17006KT P6SM -SHRA OVC015
     FM020600 13004KT 1SM -SHRA BR BKN015
     FM020900 14004KT 2SM BR OVC030
     FM021100 21004KT 2SM BR BKN030=



000
FTUS41 KLWX 010917 AAC
TAFIAD
TAF AMD
KIAD 010917Z 0109/0212 15008KT P6SM -RA SCT010 OVC035
      TEMPO 0109/0110 BKN010
     FM011000 16008KT P6SM -RA OVC020
      TEMPO 0110/0112 BKN010
     FM011200 16009KT 3SM -RA OVC008
     FM011800 17007KT P6SM OVC010
     FM012100 17006KT P6SM -SHRA OVC015
     FM020600 13004KT 1SM -SHRA BR BKN015
     FM020900 14004KT 2SM BR OVC030
     FM021100 21004KT 2SM BR BKN030=



000
FTUS41 KLWX 010854 AAA
TAFDCA
TAF AMD
KDCA 010854Z 0109/0206 14006KT P6SM -RA OVC035
     FM011000 15006KT P6SM -RA OVC020
     FM011200 15006KT 3SM -RA OVC008
     FM011700 17007KT P6SM OVC008
     FM012100 16006KT P6SM -SHRA OVC015
     FM020300 11004KT 5SM -SHRA BR BKN008=



000
FTUS41 KLWX 010854 AAA
TAFBWI
TAF AMD
KBWI 010854Z 0109/0212 14006KT P6SM -RA OVC035
     FM011000 14006KT P6SM -RA OVC020
     FM011200 13007KT P6SM -RA OVC008
     FM011700 14007KT P6SM OVC008
     FM012100 13005KT P6SM -SHRA OVC008
     FM020300 08005KT 3SM -SHRA BR OVC003
     FM020900 07004KT 3SM BR OVC008
     FM021100 17005KT 3SM BR BKN008=



000
FTUS41 KLWX 010854 AAB
TAFIAD
TAF AMD
KIAD 010854Z 0109/0212 15008KT P6SM -RA OVC035
     FM011000 16008KT P6SM -RA OVC020
     FM011200 16009KT 3SM -RA OVC008
     FM011800 17007KT P6SM OVC010
     FM012100 17006KT P6SM -SHRA OVC015
     FM020600 13004KT 1SM -SHRA BR BKN015
     FM020900 14004KT 2SM BR OVC030
     FM021100 21004KT 2SM BR BKN030=



000
FTUS41 KLWX 010708 AAA
TAFIAD
TAF AMD
KIAD 010708Z 0107/0212 15007KT P6SM -RA BKN008 OVC012
     FM010900 15008KT 5SM -RA BR BKN006 OVC015
     FM011600 16007KT 6SM BR OVC008
     FM012100 17006KT P6SM -SHRA OVC015
     FM020300 13005KT 2SM -SHRA BR BKN010
     FM020600 13004KT 1SM -SHRA BR BKN015
     FM020900 14004KT 2SM BR OVC030
     FM021100 21004KT 2SM BR BKN030=



000
FTUS41 KLWX 010708 AAA
TAFIAD
TAF AMD
KIAD 010708Z 0107/0212 15007KT P6SM -RA BKN008 OVC012
     FM010900 15008KT 5SM -RA BR BKN006 OVC015
     FM011600 16007KT 6SM BR OVC008
     FM012100 17006KT P6SM -SHRA OVC015
     FM020300 13005KT 2SM -SHRA BR BKN010
     FM020600 13004KT 1SM -SHRA BR BKN015
     FM020900 14004KT 2SM BR OVC030
     FM021100 21004KT 2SM BR BKN030=



000
FTUS41 KLWX 010529
TAFIAD
TAF
KIAD 010529Z 0106/0212 15007KT 6SM -RA OVC030
     FM010900 15008KT 3SM -RA BR OVC015
     FM011600 16007KT 6SM BR OVC008
     FM012100 17006KT P6SM -SHRA OVC015
     FM020300 13005KT 2SM -SHRA BR BKN010
     FM020600 13004KT 1SM -SHRA BR BKN015
     FM020900 14004KT 2SM BR OVC030
     FM021100 21004KT 2SM BR BKN030=



000
FTUS41 KLWX 010529
TAFMTN
TAF
KMTN 010529Z 0106/0206 NIL=



000
FTUS41 KLWX 010529
TAFMRB
TAF
KMRB 010529Z 0106/0206 16008KT 3SM -RA BR OVC010
     FM011600 15007KT P6SM OVC010
     FM011800 16006KT P6SM BKN020
     FM012100 15006KT P6SM -SHRA BKN015
     FM020300 VRB03KT 2SM -SHRA BR BKN020=



000
FTUS41 KLWX 010529
TAFDCA
TAF
KDCA 010529Z 0106/0206 15007KT P6SM -RA OVC035
     FM010900 14006KT 6SM -RA OVC015
     FM011200 15006KT 5SM -RA BR OVC008
     FM011600 16007KT 6SM BR OVC008
     FM012100 16006KT P6SM -SHRA OVC015
     FM020300 11004KT 5SM -SHRA BR BKN008=



000
FTUS41 KLWX 010529
TAFBWI
TAF
KBWI 010529Z 0106/0212 14007KT P6SM -RA OVC035
     FM010900 14006KT P6SM -RA OVC015
     FM011200 13007KT 6SM -RA BR OVC008
     FM011600 13007KT 6SM BR OVC008
     FM012100 13005KT P6SM -SHRA OVC008
     FM020300 08005KT 3SM -SHRA BR OVC003
     FM020900 07004KT 3SM BR OVC008
     FM021100 17005KT 3SM BR BKN008=



000
FTUS41 KLWX 010529
TAFCHO
TAF
KCHO 010529Z 0106/0206 14005KT 3SM -RA BR OVC015
     FM010900 14004KT 3SM -RA BR OVC008
     FM011500 18006KT 6SM BR OVC015
     FM012100 20007KT P6SM -SHRA VCTS BKN040CB
     FM020000 19005KT 6SM -SHRA BR VCTS BKN050CB
     FM020300 19005KT 3SM -SHRA BR OVC045=



    US Dept of Commerce
    National Oceanic and Atmospheric Administration
    National Weather Service
    1325 East West Highway
    Silver Spring, MD 20910
    Page Author: NWS Internet Services Team
Disclaimer
Information Quality
Credits
Glossary
Privacy Policy
Freedom of Information Act (FOIA)
About Us
Career Opportunities